sensor_id;sensor_type;location;lat;lon;timestamp;P1;durP1;ratioP1;P2;durP2;ratioP2
35897;SDS011;21997;47.118;15.346;2022-10-16T00:00:30;32.33;;;23.90;;
35897;SDS011;21997;47.118;15.346;2022-10-16T00:02:55;32.70;;;26.43;;
35897;SDS011;21997;47.118;15.346;2022-10-16T00:05:21;40.13;;;25.33;;
35897;SDS011;21997;47.118;15.346;2022-10-16T00:07:46;36.63;;;26.33;;
35897;SDS011;21997;47.118;15.346;2022-10-16T00:10:12;34.37;;;25.77;;
35897;SDS011;21997;47.118;15.346;2022-10-16T00:12:37;31.73;;;24.97;;
35897;SDS011;21997;47.118;15.346;2022-10-16T00:15:03;35.53;;;25.47;;
35897;SDS011;21997;47.118;15.346;2022-10-16T00:17:30;32.07;;;24.27;;
35897;SDS011;21997;47.118;15.346;2022-10-16T00:19:55;30.90;;;24.43;;
35897;SDS011;21997;47.118;15.346;2022-10-16T00:22:21;31.53;;;24.07;;
35897;SDS011;21997;47.118;15.346;2022-10-16T00:24:47;31.13;;;24.70;;
35897;SDS011;21997;47.118;15.346;2022-10-16T00:27:12;30.83;;;24.53;;
35897;SDS011;21997;47.118;15.346;2022-10-16T00:29:37;30.97;;;23.90;;
35897;SDS011;21997;47.118;15.346;2022-10-16T00:32:03;38.17;;;23.93;;
35897;SDS011;21997;47.118;15.346;2022-10-16T00:34:29;34.17;;;24.33;;
35897;SDS011;21997;47.118;15.346;2022-10-16T00:36:54;30.93;;;23.83;;
35897;SDS011;21997;47.118;15.346;2022-10-16T00:39:19;30.23;;;22.90;;
35897;SDS011;21997;47.118;15.346;2022-10-16T00:41:45;35.07;;;23.00;;
35897;SDS011;21997;47.118;15.346;2022-10-16T00:47:13;31.90;;;22.97;;
35897;SDS011;21997;47.118;15.346;2022-10-16T00:49:49;30.77;;;22.80;;
35897;SDS011;21997;47.118;15.346;2022-10-16T00:52:15;27.40;;;21.27;;
35897;SDS011;21997;47.118;15.346;2022-10-16T00:54:41;27.97;;;21.93;;
35897;SDS011;21997;47.118;15.346;2022-10-16T00:57:07;28.13;;;21.97;;
35897;SDS011;21997;47.118;15.346;2022-10-16T00:59:36;25.97;;;21.10;;
35897;SDS011;21997;47.118;15.346;2022-10-16T01:02:05;27.97;;;20.97;;
35897;SDS011;21997;47.118;15.346;2022-10-16T01:04:43;28.00;;;21.63;;
35897;SDS011;21997;47.118;15.346;2022-10-16T01:12:51;24.37;;;19.33;;
35897;SDS011;21997;47.118;15.346;2022-10-16T01:20:46;25.40;;;18.93;;
35897;SDS011;21997;47.118;15.346;2022-10-16T01:23:47;26.87;;;19.87;;
35897;SDS011;21997;47.118;15.346;2022-10-16T01:26:23;26.87;;;19.67;;
35897;SDS011;21997;47.118;15.346;2022-10-16T01:29:03;23.67;;;18.90;;
35897;SDS011;21997;47.118;15.346;2022-10-16T01:31:35;25.07;;;19.43;;
35897;SDS011;21997;47.118;15.346;2022-10-16T01:34:03;24.87;;;20.10;;
35897;SDS011;21997;47.118;15.346;2022-10-16T01:36:35;24.60;;;18.73;;
35897;SDS011;21997;47.118;15.346;2022-10-16T01:39:02;24.90;;;19.83;;
35897;SDS011;21997;47.118;15.346;2022-10-16T01:41:30;26.77;;;19.27;;
35897;SDS011;21997;47.118;15.346;2022-10-16T01:44:01;24.77;;;19.23;;
35897;SDS011;21997;47.118;15.346;2022-10-16T01:46:30;25.50;;;18.90;;
35897;SDS011;21997;47.118;15.346;2022-10-16T01:48:57;24.00;;;18.37;;
35897;SDS011;21997;47.118;15.346;2022-10-16T01:51:25;25.23;;;18.70;;
35897;SDS011;21997;47.118;15.346;2022-10-16T01:53:54;22.43;;;17.50;;
35897;SDS011;21997;47.118;15.346;2022-10-16T01:56:20;23.87;;;18.93;;
35897;SDS011;21997;47.118;15.346;2022-10-16T01:58:54;26.33;;;18.67;;
35897;SDS011;21997;47.118;15.346;2022-10-16T02:01:22;27.77;;;19.83;;
35897;SDS011;21997;47.118;15.346;2022-10-16T02:03:49;23.30;;;18.03;;
35897;SDS011;21997;47.118;15.346;2022-10-16T02:06:17;25.00;;;18.50;;
35897;SDS011;21997;47.118;15.346;2022-10-16T02:08:42;23.53;;;17.93;;
35897;SDS011;21997;47.118;15.346;2022-10-16T02:11:09;30.13;;;20.00;;
35897;SDS011;21997;47.118;15.346;2022-10-16T02:13:52;26.63;;;20.33;;
35897;SDS011;21997;47.118;15.346;2022-10-16T02:16:18;28.03;;;18.33;;
35897;SDS011;21997;47.118;15.346;2022-10-16T02:18:44;24.83;;;18.77;;
35897;SDS011;21997;47.118;15.346;2022-10-16T02:23:36;22.67;;;18.23;;
35897;SDS011;21997;47.118;15.346;2022-10-16T02:26:07;28.17;;;19.43;;
35897;SDS011;21997;47.118;15.346;2022-10-16T02:28:46;26.60;;;19.23;;
35897;SDS011;21997;47.118;15.346;2022-10-16T02:31:16;26.23;;;18.37;;
35897;SDS011;21997;47.118;15.346;2022-10-16T02:33:44;27.00;;;19.17;;
35897;SDS011;21997;47.118;15.346;2022-10-16T02:36:10;27.83;;;18.63;;
35897;SDS011;21997;47.118;15.346;2022-10-16T02:38:36;20.83;;;17.97;;
35897;SDS011;21997;47.118;15.346;2022-10-16T02:41:03;23.00;;;17.53;;
35897;SDS011;21997;47.118;15.346;2022-10-16T02:43:29;25.40;;;19.00;;
35897;SDS011;21997;47.118;15.346;2022-10-16T02:45:54;25.43;;;18.23;;
35897;SDS011;21997;47.118;15.346;2022-10-16T02:48:19;24.27;;;17.80;;
35897;SDS011;21997;47.118;15.346;2022-10-16T02:50:45;25.27;;;18.13;;
35897;SDS011;21997;47.118;15.346;2022-10-16T02:53:10;24.80;;;17.60;;
35897;SDS011;21997;47.118;15.346;2022-10-16T02:55:35;21.73;;;16.93;;
35897;SDS011;21997;47.118;15.346;2022-10-16T02:58:01;22.47;;;17.40;;
35897;SDS011;21997;47.118;15.346;2022-10-16T03:00:26;22.90;;;17.37;;
35897;SDS011;21997;47.118;15.346;2022-10-16T03:02:52;21.47;;;17.40;;
35897;SDS011;21997;47.118;15.346;2022-10-16T03:05:17;20.43;;;16.93;;
35897;SDS011;21997;47.118;15.346;2022-10-16T03:07:43;22.57;;;16.37;;
35897;SDS011;21997;47.118;15.346;2022-10-16T03:10:08;23.33;;;17.83;;
35897;SDS011;21997;47.118;15.346;2022-10-16T03:12:34;25.07;;;15.80;;
35897;SDS011;21997;47.118;15.346;2022-10-16T03:14:59;20.17;;;16.17;;
35897;SDS011;21997;47.118;15.346;2022-10-16T03:17:24;23.37;;;16.73;;
35897;SDS011;21997;47.118;15.346;2022-10-16T03:19:50;20.03;;;15.63;;
35897;SDS011;21997;47.118;15.346;2022-10-16T03:22:16;25.23;;;16.03;;
35897;SDS011;21997;47.118;15.346;2022-10-16T03:24:41;23.03;;;17.03;;
35897;SDS011;21997;47.118;15.346;2022-10-16T03:27:07;22.80;;;17.00;;
35897;SDS011;21997;47.118;15.346;2022-10-16T03:29:32;21.73;;;16.17;;
35897;SDS011;21997;47.118;15.346;2022-10-16T03:31:58;22.27;;;17.30;;
35897;SDS011;21997;47.118;15.346;2022-10-16T03:34:24;20.43;;;16.13;;
35897;SDS011;21997;47.118;15.346;2022-10-16T03:36:49;21.10;;;15.67;;
35897;SDS011;21997;47.118;15.346;2022-10-16T03:39:15;25.37;;;15.07;;
35897;SDS011;21997;47.118;15.346;2022-10-16T03:41:40;25.40;;;16.70;;
35897;SDS011;21997;47.118;15.346;2022-10-16T03:44:05;22.23;;;17.33;;
35897;SDS011;21997;47.118;15.346;2022-10-16T03:46:31;21.90;;;16.30;;
35897;SDS011;21997;47.118;15.346;2022-10-16T03:48:56;21.53;;;15.63;;
35897;SDS011;21997;47.118;15.346;2022-10-16T03:51:22;22.43;;;16.33;;
35897;SDS011;21997;47.118;15.346;2022-10-16T03:53:48;21.03;;;15.47;;
35897;SDS011;21997;47.118;15.346;2022-10-16T03:56:13;21.10;;;16.10;;
35897;SDS011;21997;47.118;15.346;2022-10-16T03:58:38;20.30;;;16.23;;
35897;SDS011;21997;47.118;15.346;2022-10-16T04:01:04;21.37;;;15.70;;
35897;SDS011;21997;47.118;15.346;2022-10-16T04:03:29;20.87;;;15.90;;
35897;SDS011;21997;47.118;15.346;2022-10-16T04:05:54;22.63;;;17.13;;
35897;SDS011;21997;47.118;15.346;2022-10-16T04:08:20;19.90;;;15.03;;
35897;SDS011;21997;47.118;15.346;2022-10-16T04:10:46;19.10;;;15.03;;
35897;SDS011;21997;47.118;15.346;2022-10-16T04:13:11;20.93;;;17.20;;
35897;SDS011;21997;47.118;15.346;2022-10-16T04:15:37;21.63;;;15.27;;
35897;SDS011;21997;47.118;15.346;2022-10-16T04:18:03;18.70;;;15.57;;
35897;SDS011;21997;47.118;15.346;2022-10-16T04:20:29;22.40;;;16.30;;
35897;SDS011;21997;47.118;15.346;2022-10-16T04:22:55;21.13;;;15.30;;
35897;SDS011;21997;47.118;15.346;2022-10-16T04:25:20;19.67;;;15.97;;
35897;SDS011;21997;47.118;15.346;2022-10-16T04:27:46;25.40;;;15.43;;
35897;SDS011;21997;47.118;15.346;2022-10-16T04:30:11;25.03;;;15.43;;
35897;SDS011;21997;47.118;15.346;2022-10-16T04:32:37;20.17;;;14.83;;
35897;SDS011;21997;47.118;15.346;2022-10-16T04:35:03;20.57;;;15.50;;
35897;SDS011;21997;47.118;15.346;2022-10-16T04:37:28;20.53;;;15.37;;
35897;SDS011;21997;47.118;15.346;2022-10-16T04:39:54;18.97;;;14.50;;
35897;SDS011;21997;47.118;15.346;2022-10-16T04:42:19;18.90;;;15.90;;
35897;SDS011;21997;47.118;15.346;2022-10-16T04:44:45;22.83;;;14.90;;
35897;SDS011;21997;47.118;15.346;2022-10-16T04:47:11;16.23;;;13.50;;
35897;SDS011;21997;47.118;15.346;2022-10-16T04:49:36;19.03;;;14.93;;
35897;SDS011;21997;47.118;15.346;2022-10-16T04:52:02;21.50;;;14.03;;
35897;SDS011;21997;47.118;15.346;2022-10-16T04:54:28;19.23;;;14.80;;
35897;SDS011;21997;47.118;15.346;2022-10-16T04:56:53;17.73;;;14.40;;
35897;SDS011;21997;47.118;15.346;2022-10-16T04:59:19;19.40;;;14.87;;
35897;SDS011;21997;47.118;15.346;2022-10-16T05:01:44;22.50;;;16.33;;
35897;SDS011;21997;47.118;15.346;2022-10-16T05:04:10;20.70;;;15.10;;
35897;SDS011;21997;47.118;15.346;2022-10-16T05:06:35;18.97;;;14.73;;
35897;SDS011;21997;47.118;15.346;2022-10-16T05:09:01;19.83;;;14.33;;
35897;SDS011;21997;47.118;15.346;2022-10-16T05:11:27;21.30;;;16.93;;
35897;SDS011;21997;47.118;15.346;2022-10-16T05:13:53;21.80;;;17.90;;
35897;SDS011;21997;47.118;15.346;2022-10-16T05:16:18;23.10;;;18.27;;
35897;SDS011;21997;47.118;15.346;2022-10-16T05:18:43;23.17;;;19.53;;
35897;SDS011;21997;47.118;15.346;2022-10-16T05:21:09;22.57;;;18.00;;
35897;SDS011;21997;47.118;15.346;2022-10-16T05:23:34;24.77;;;17.90;;
35897;SDS011;21997;47.118;15.346;2022-10-16T05:25:59;22.63;;;18.23;;
35897;SDS011;21997;47.118;15.346;2022-10-16T05:28:25;22.60;;;18.80;;
35897;SDS011;21997;47.118;15.346;2022-10-16T05:30:52;30.97;;;20.07;;
35897;SDS011;21997;47.118;15.346;2022-10-16T05:33:19;28.93;;;17.77;;
35897;SDS011;21997;47.118;15.346;2022-10-16T05:35:48;27.00;;;19.17;;
35897;SDS011;21997;47.118;15.346;2022-10-16T05:38:14;22.03;;;17.13;;
35897;SDS011;21997;47.118;15.346;2022-10-16T05:40:40;23.87;;;18.87;;
35897;SDS011;21997;47.118;15.346;2022-10-16T05:43:06;23.37;;;17.03;;
35897;SDS011;21997;47.118;15.346;2022-10-16T05:45:31;27.10;;;17.77;;
35897;SDS011;21997;47.118;15.346;2022-10-16T05:47:56;22.63;;;16.67;;
35897;SDS011;21997;47.118;15.346;2022-10-16T05:50:22;22.10;;;17.13;;
35897;SDS011;21997;47.118;15.346;2022-10-16T05:52:47;24.27;;;17.73;;
35897;SDS011;21997;47.118;15.346;2022-10-16T05:55:12;20.63;;;16.17;;
35897;SDS011;21997;47.118;15.346;2022-10-16T05:57:38;21.17;;;16.27;;
35897;SDS011;21997;47.118;15.346;2022-10-16T06:00:04;22.00;;;15.80;;
35897;SDS011;21997;47.118;15.346;2022-10-16T06:02:30;21.00;;;15.27;;
35897;SDS011;21997;47.118;15.346;2022-10-16T06:04:55;22.07;;;15.43;;
35897;SDS011;21997;47.118;15.346;2022-10-16T06:07:21;17.90;;;14.93;;
35897;SDS011;21997;47.118;15.346;2022-10-16T06:09:50;17.93;;;14.83;;
35897;SDS011;21997;47.118;15.346;2022-10-16T06:12:16;19.17;;;15.17;;
35897;SDS011;21997;47.118;15.346;2022-10-16T06:14:42;21.70;;;15.73;;
35897;SDS011;21997;47.118;15.346;2022-10-16T06:17:07;20.63;;;15.17;;
35897;SDS011;21997;47.118;15.346;2022-10-16T06:19:33;20.07;;;15.37;;
35897;SDS011;21997;47.118;15.346;2022-10-16T06:21:58;23.53;;;16.23;;
35897;SDS011;21997;47.118;15.346;2022-10-16T06:24:24;18.13;;;14.37;;
35897;SDS011;21997;47.118;15.346;2022-10-16T06:26:50;24.03;;;15.57;;
35897;SDS011;21997;47.118;15.346;2022-10-16T06:29:15;23.60;;;15.50;;
35897;SDS011;21997;47.118;15.346;2022-10-16T06:31:41;22.83;;;15.20;;
35897;SDS011;21997;47.118;15.346;2022-10-16T06:34:08;17.87;;;15.23;;
35897;SDS011;21997;47.118;15.346;2022-10-16T06:36:35;18.37;;;15.00;;
35897;SDS011;21997;47.118;15.346;2022-10-16T06:39:01;21.50;;;14.17;;
35897;SDS011;21997;47.118;15.346;2022-10-16T06:41:27;19.67;;;14.07;;
35897;SDS011;21997;47.118;15.346;2022-10-16T06:43:52;20.07;;;13.63;;
35897;SDS011;21997;47.118;15.346;2022-10-16T06:46:19;20.33;;;15.07;;
35897;SDS011;21997;47.118;15.346;2022-10-16T06:48:48;19.93;;;12.57;;
35897;SDS011;21997;47.118;15.346;2022-10-16T06:51:14;13.93;;;12.43;;
35897;SDS011;21997;47.118;15.346;2022-10-16T06:53:47;18.93;;;12.37;;
35897;SDS011;21997;47.118;15.346;2022-10-16T06:56:15;17.60;;;11.73;;
35897;SDS011;21997;47.118;15.346;2022-10-16T06:58:45;13.87;;;10.63;;
35897;SDS011;21997;47.118;15.346;2022-10-16T07:01:12;16.17;;;10.57;;
35897;SDS011;21997;47.118;15.346;2022-10-16T07:03:39;15.65;;;11.13;;
35897;SDS011;21997;47.118;15.346;2022-10-16T07:06:06;14.38;;;11.88;;
35897;SDS011;21997;47.118;15.346;2022-10-16T07:08:35;11.70;;;10.48;;
35897;SDS011;21997;47.118;15.346;2022-10-16T07:11:02;12.15;;;10.85;;
35897;SDS011;21997;47.118;15.346;2022-10-16T07:13:29;11.77;;;10.55;;
35897;SDS011;21997;47.118;15.346;2022-10-16T07:15:57;10.70;;;9.70;;
35897;SDS011;21997;47.118;15.346;2022-10-16T07:18:22;13.40;;;10.77;;
35897;SDS011;21997;47.118;15.346;2022-10-16T07:20:51;11.50;;;10.30;;
35897;SDS011;21997;47.118;15.346;2022-10-16T07:23:16;11.98;;;10.45;;
35897;SDS011;21997;47.118;15.346;2022-10-16T07:25:41;15.23;;;11.65;;
35897;SDS011;21997;47.118;15.346;2022-10-16T07:28:07;15.13;;;11.00;;
35897;SDS011;21997;47.118;15.346;2022-10-16T07:30:34;12.82;;;11.27;;
35897;SDS011;21997;47.118;15.346;2022-10-16T07:33:01;15.65;;;11.30;;
35897;SDS011;21997;47.118;15.346;2022-10-16T07:35:27;15.07;;;11.25;;
35897;SDS011;21997;47.118;15.346;2022-10-16T07:37:52;14.55;;;10.57;;
35897;SDS011;21997;47.118;15.346;2022-10-16T07:40:18;12.82;;;10.70;;
35897;SDS011;21997;47.118;15.346;2022-10-16T07:42:43;11.30;;;10.18;;
35897;SDS011;21997;47.118;15.346;2022-10-16T07:45:08;12.70;;;10.70;;
35897;SDS011;21997;47.118;15.346;2022-10-16T07:47:34;12.70;;;10.95;;
35897;SDS011;21997;47.118;15.346;2022-10-16T07:49:59;12.60;;;10.02;;
35897;SDS011;21997;47.118;15.346;2022-10-16T07:52:25;11.07;;;9.60;;
35897;SDS011;21997;47.118;15.346;2022-10-16T07:54:50;10.77;;;9.68;;
35897;SDS011;21997;47.118;15.346;2022-10-16T07:57:15;15.10;;;10.73;;
35897;SDS011;21997;47.118;15.346;2022-10-16T07:59:44;11.27;;;9.85;;
35897;SDS011;21997;47.118;15.346;2022-10-16T08:02:10;11.90;;;10.23;;
35897;SDS011;21997;47.118;15.346;2022-10-16T08:04:36;11.38;;;10.18;;
35897;SDS011;21997;47.118;15.346;2022-10-16T08:07:01;10.77;;;9.68;;
35897;SDS011;21997;47.118;15.346;2022-10-16T08:09:27;11.48;;;9.85;;
35897;SDS011;21997;47.118;15.346;2022-10-16T08:11:52;11.95;;;10.15;;
35897;SDS011;21997;47.118;15.346;2022-10-16T08:14:17;11.85;;;10.65;;
35897;SDS011;21997;47.118;15.346;2022-10-16T08:16:43;10.48;;;9.45;;
35897;SDS011;21997;47.118;15.346;2022-10-16T08:19:08;11.05;;;9.95;;
35897;SDS011;21997;47.118;15.346;2022-10-16T08:21:33;11.05;;;9.85;;
35897;SDS011;21997;47.118;15.346;2022-10-16T08:23:59;10.95;;;9.45;;
35897;SDS011;21997;47.118;15.346;2022-10-16T08:26:25;11.02;;;9.93;;
35897;SDS011;21997;47.118;15.346;2022-10-16T08:28:51;9.60;;;8.35;;
35897;SDS011;21997;47.118;15.346;2022-10-16T08:31:17;11.55;;;10.25;;
35897;SDS011;21997;47.118;15.346;2022-10-16T08:33:43;10.15;;;9.25;;
35897;SDS011;21997;47.118;15.346;2022-10-16T08:36:10;11.00;;;9.02;;
35897;SDS011;21997;47.118;15.346;2022-10-16T08:38:36;10.60;;;9.50;;
35897;SDS011;21997;47.118;15.346;2022-10-16T08:41:10;10.85;;;9.68;;
35897;SDS011;21997;47.118;15.346;2022-10-16T08:52:32;11.35;;;9.65;;
35897;SDS011;21997;47.118;15.346;2022-10-16T08:55:00;9.93;;;8.88;;
35897;SDS011;21997;47.118;15.346;2022-10-16T08:57:26;10.15;;;8.85;;
35897;SDS011;21997;47.118;15.346;2022-10-16T08:59:52;11.13;;;8.73;;
35897;SDS011;21997;47.118;15.346;2022-10-16T09:02:32;9.85;;;8.93;;
35897;SDS011;21997;47.118;15.346;2022-10-16T09:18:39;11.35;;;9.75;;
35897;SDS011;21997;47.118;15.346;2022-10-16T09:21:19;9.20;;;8.30;;
35897;SDS011;21997;47.118;15.346;2022-10-16T09:23:47;8.20;;;7.50;;
35897;SDS011;21997;47.118;15.346;2022-10-16T09:26:14;10.48;;;8.73;;
35897;SDS011;21997;47.118;15.346;2022-10-16T09:28:41;10.30;;;8.77;;
35897;SDS011;21997;47.118;15.346;2022-10-16T09:31:10;10.20;;;9.23;;
35897;SDS011;21997;47.118;15.346;2022-10-16T09:33:40;9.95;;;8.95;;
35897;SDS011;21997;47.118;15.346;2022-10-16T09:36:06;9.98;;;8.98;;
35897;SDS011;21997;47.118;15.346;2022-10-16T09:38:35;8.75;;;7.97;;
35897;SDS011;21997;47.118;15.346;2022-10-16T09:41:02;10.27;;;9.05;;
35897;SDS011;21997;47.118;15.346;2022-10-16T09:43:36;8.98;;;8.15;;
35897;SDS011;21997;47.118;15.346;2022-10-16T09:46:06;9.30;;;8.50;;
35897;SDS011;21997;47.118;15.346;2022-10-16T09:51:01;9.48;;;7.95;;
35897;SDS011;21997;47.118;15.346;2022-10-16T09:53:39;9.13;;;8.23;;
35897;SDS011;21997;47.118;15.346;2022-10-16T09:56:10;9.18;;;8.25;;
35897;SDS011;21997;47.118;15.346;2022-10-16T09:58:41;8.88;;;7.95;;
35897;SDS011;21997;47.118;15.346;2022-10-16T10:01:11;8.80;;;7.90;;
35897;SDS011;21997;47.118;15.346;2022-10-16T10:03:39;8.70;;;7.90;;
35897;SDS011;21997;47.118;15.346;2022-10-16T10:06:28;8.80;;;8.00;;
35897;SDS011;21997;47.118;15.346;2022-10-16T10:14:04;10.60;;;9.55;;
35897;SDS011;21997;47.118;15.346;2022-10-16T10:16:30;9.40;;;8.50;;
35897;SDS011;21997;47.118;15.346;2022-10-16T10:18:59;9.32;;;8.52;;
35897;SDS011;21997;47.118;15.346;2022-10-16T10:21:25;11.00;;;9.88;;
35897;SDS011;21997;47.118;15.346;2022-10-16T10:23:56;10.45;;;9.27;;
35897;SDS011;21997;47.118;15.346;2022-10-16T10:26:23;9.75;;;8.85;;
35897;SDS011;21997;47.118;15.346;2022-10-16T10:29:02;10.02;;;9.02;;
35897;SDS011;21997;47.118;15.346;2022-10-16T10:31:57;9.10;;;8.18;;
35897;SDS011;21997;47.118;15.346;2022-10-16T10:42:49;8.68;;;7.88;;
35897;SDS011;21997;47.118;15.346;2022-10-16T10:58:34;9.00;;;8.20;;
35897;SDS011;21997;47.118;15.346;2022-10-16T11:07:04;11.18;;;10.10;;
35897;SDS011;21997;47.118;15.346;2022-10-16T11:09:43;11.45;;;10.45;;
35897;SDS011;21997;47.118;15.346;2022-10-16T11:12:16;10.60;;;9.57;;
35897;SDS011;21997;47.118;15.346;2022-10-16T11:17:32;10.80;;;9.90;;
35897;SDS011;21997;47.118;15.346;2022-10-16T11:22:39;10.90;;;10.00;;
35897;SDS011;21997;47.118;15.346;2022-10-16T11:27:55;10.15;;;9.20;;
35897;SDS011;21997;47.118;15.346;2022-10-16T11:30:27;10.73;;;9.82;;
35897;SDS011;21997;47.118;15.346;2022-10-16T11:35:41;12.65;;;11.55;;
35897;SDS011;21997;47.118;15.346;2022-10-16T11:38:18;11.38;;;10.38;;
35897;SDS011;21997;47.118;15.346;2022-10-16T11:41:10;9.85;;;8.95;;
35897;SDS011;21997;47.118;15.346;2022-10-16T11:46:40;10.57;;;9.48;;
35897;SDS011;21997;47.118;15.346;2022-10-16T11:49:20;11.38;;;10.38;;
35897;SDS011;21997;47.118;15.346;2022-10-16T11:51:59;10.38;;;9.30;;
35897;SDS011;21997;47.118;15.346;2022-10-16T11:54:33;11.77;;;10.55;;
35897;SDS011;21997;47.118;15.346;2022-10-16T11:57:16;11.80;;;10.55;;
35897;SDS011;21997;47.118;15.346;2022-10-16T12:08:00;11.13;;;9.07;;
35897;SDS011;21997;47.118;15.346;2022-10-16T12:10:35;10.98;;;9.90;;
35897;SDS011;21997;47.118;15.346;2022-10-16T12:13:02;9.93;;;8.93;;
35897;SDS011;21997;47.118;15.346;2022-10-16T12:15:30;10.18;;;9.27;;
35897;SDS011;21997;47.118;15.346;2022-10-16T12:17:57;11.10;;;9.95;;
35897;SDS011;21997;47.118;15.346;2022-10-16T12:20:27;11.35;;;10.43;;
35897;SDS011;21997;47.118;15.346;2022-10-16T12:22:59;10.68;;;9.60;;
35897;SDS011;21997;47.118;15.346;2022-10-16T12:28:00;11.50;;;10.30;;
35897;SDS011;21997;47.118;15.346;2022-10-16T12:30:29;10.52;;;9.52;;
35897;SDS011;21997;47.118;15.346;2022-10-16T12:33:06;10.77;;;9.82;;
35897;SDS011;21997;47.118;15.346;2022-10-16T12:36:02;10.85;;;9.75;;
35897;SDS011;21997;47.118;15.346;2022-10-16T12:41:10;11.35;;;10.13;;
35897;SDS011;21997;47.118;15.346;2022-10-16T12:48:34;13.43;;;12.13;;
35897;SDS011;21997;47.118;15.346;2022-10-16T12:59:13;11.00;;;9.90;;
35897;SDS011;21997;47.118;15.346;2022-10-16T13:01:53;10.57;;;9.45;;
35897;SDS011;21997;47.118;15.346;2022-10-16T13:10:02;10.05;;;9.23;;
35897;SDS011;21997;47.118;15.346;2022-10-16T13:18:19;10.32;;;9.43;;
35897;SDS011;21997;47.118;15.346;2022-10-16T13:21:04;10.40;;;9.43;;
35897;SDS011;21997;47.118;15.346;2022-10-16T13:29:32;9.02;;;8.32;;
35897;SDS011;21997;47.118;15.346;2022-10-16T13:31:59;9.65;;;8.85;;
35897;SDS011;21997;47.118;15.346;2022-10-16T13:34:26;9.98;;;9.18;;
35897;SDS011;21997;47.118;15.346;2022-10-16T13:36:52;8.90;;;8.05;;
35897;SDS011;21997;47.118;15.346;2022-10-16T13:39:28;9.48;;;8.68;;
35897;SDS011;21997;47.118;15.346;2022-10-16T13:42:04;9.88;;;8.98;;
35897;SDS011;21997;47.118;15.346;2022-10-16T13:44:36;10.25;;;9.30;;
35897;SDS011;21997;47.118;15.346;2022-10-16T13:47:18;10.75;;;9.63;;
35897;SDS011;21997;47.118;15.346;2022-10-16T13:49:44;9.70;;;8.80;;
35897;SDS011;21997;47.118;15.346;2022-10-16T13:52:19;10.60;;;9.45;;
35897;SDS011;21997;47.118;15.346;2022-10-16T13:54:45;9.38;;;8.57;;
35897;SDS011;21997;47.118;15.346;2022-10-16T13:57:12;12.65;;;9.25;;
35897;SDS011;21997;47.118;15.346;2022-10-16T13:59:39;9.93;;;8.98;;
35897;SDS011;21997;47.118;15.346;2022-10-16T14:02:08;11.80;;;8.57;;
35897;SDS011;21997;47.118;15.346;2022-10-16T14:04:40;11.75;;;9.27;;
35897;SDS011;21997;47.118;15.346;2022-10-16T14:07:05;10.65;;;9.65;;
35897;SDS011;21997;47.118;15.346;2022-10-16T14:09:30;9.93;;;9.02;;
35897;SDS011;21997;47.118;15.346;2022-10-16T14:11:58;10.85;;;9.85;;
35897;SDS011;21997;47.118;15.346;2022-10-16T14:14:26;10.55;;;9.65;;
35897;SDS011;21997;47.118;15.346;2022-10-16T14:16:54;11.48;;;10.38;;
35897;SDS011;21997;47.118;15.346;2022-10-16T14:19:21;11.55;;;10.45;;
35897;SDS011;21997;47.118;15.346;2022-10-16T14:21:48;16.25;;;10.57;;
35897;SDS011;21997;47.118;15.346;2022-10-16T14:24:25;13.00;;;10.50;;
35897;SDS011;21997;47.118;15.346;2022-10-16T14:26:52;18.17;;;12.48;;
35897;SDS011;21997;47.118;15.346;2022-10-16T14:29:20;13.68;;;11.05;;
35897;SDS011;21997;47.118;15.346;2022-10-16T14:31:59;12.30;;;11.10;;
35897;SDS011;21997;47.118;15.346;2022-10-16T14:36:58;12.32;;;11.13;;
35897;SDS011;21997;47.118;15.346;2022-10-16T14:39:27;13.13;;;11.00;;
35897;SDS011;21997;47.118;15.346;2022-10-16T14:41:54;13.70;;;12.00;;
35897;SDS011;21997;47.118;15.346;2022-10-16T14:44:21;15.30;;;12.02;;
35897;SDS011;21997;47.118;15.346;2022-10-16T14:46:51;12.15;;;10.95;;
35897;SDS011;21997;47.118;15.346;2022-10-16T14:49:17;11.90;;;10.70;;
35897;SDS011;21997;47.118;15.346;2022-10-16T14:51:47;12.93;;;10.50;;
35897;SDS011;21997;47.118;15.346;2022-10-16T14:54:14;12.23;;;10.43;;
35897;SDS011;21997;47.118;15.346;2022-10-16T14:56:43;12.95;;;11.65;;
35897;SDS011;21997;47.118;15.346;2022-10-16T14:59:14;12.70;;;11.25;;
35897;SDS011;21997;47.118;15.346;2022-10-16T15:01:45;13.75;;;10.60;;
35897;SDS011;21997;47.118;15.346;2022-10-16T15:04:11;14.23;;;11.57;;
35897;SDS011;21997;47.118;15.346;2022-10-16T15:06:37;13.13;;;11.20;;
35897;SDS011;21997;47.118;15.346;2022-10-16T15:09:03;11.93;;;10.67;;
35897;SDS011;21997;47.118;15.346;2022-10-16T15:11:28;17.00;;;12.13;;
35897;SDS011;21997;47.118;15.346;2022-10-16T15:13:54;15.83;;;12.47;;
35897;SDS011;21997;47.118;15.346;2022-10-16T15:16:20;14.77;;;11.80;;
35897;SDS011;21997;47.118;15.346;2022-10-16T15:18:45;13.67;;;11.80;;
35897;SDS011;21997;47.118;15.346;2022-10-16T15:21:22;12.47;;;11.13;;
35897;SDS011;21997;47.118;15.346;2022-10-16T15:23:52;14.97;;;11.53;;
35897;SDS011;21997;47.118;15.346;2022-10-16T15:26:17;13.63;;;12.07;;
35897;SDS011;21997;47.118;15.346;2022-10-16T15:28:42;18.60;;;11.97;;
35897;SDS011;21997;47.118;15.346;2022-10-16T15:31:08;18.33;;;12.27;;
35897;SDS011;21997;47.118;15.346;2022-10-16T15:33:34;17.77;;;11.80;;
35897;SDS011;21997;47.118;15.346;2022-10-16T15:36:00;15.80;;;11.63;;
35897;SDS011;21997;47.118;15.346;2022-10-16T15:38:26;16.50;;;11.07;;
35897;SDS011;21997;47.118;15.346;2022-10-16T15:40:52;15.07;;;12.07;;
35897;SDS011;21997;47.118;15.346;2022-10-16T15:43:18;16.13;;;11.93;;
35897;SDS011;21997;47.118;15.346;2022-10-16T15:45:44;14.50;;;11.80;;
35897;SDS011;21997;47.118;15.346;2022-10-16T15:48:11;17.10;;;13.27;;
35897;SDS011;21997;47.118;15.346;2022-10-16T15:50:38;17.73;;;13.33;;
35897;SDS011;21997;47.118;15.346;2022-10-16T15:53:03;17.03;;;12.90;;
35897;SDS011;21997;47.118;15.346;2022-10-16T15:55:29;22.70;;;13.00;;
35897;SDS011;21997;47.118;15.346;2022-10-16T15:57:54;14.90;;;12.40;;
35897;SDS011;21997;47.118;15.346;2022-10-16T16:00:21;14.87;;;12.70;;
35897;SDS011;21997;47.118;15.346;2022-10-16T16:02:51;18.87;;;12.17;;
35897;SDS011;21997;47.118;15.346;2022-10-16T16:05:18;18.37;;;13.13;;
35897;SDS011;21997;47.118;15.346;2022-10-16T16:07:45;14.13;;;12.63;;
35897;SDS011;21997;47.118;15.346;2022-10-16T16:10:11;17.03;;;12.80;;
35897;SDS011;21997;47.118;15.346;2022-10-16T16:12:37;15.73;;;13.30;;
35897;SDS011;21997;47.118;15.346;2022-10-16T16:15:03;13.87;;;11.90;;
35897;SDS011;21997;47.118;15.346;2022-10-16T16:17:30;14.77;;;12.40;;
35897;SDS011;21997;47.118;15.346;2022-10-16T16:19:56;15.20;;;12.50;;
35897;SDS011;21997;47.118;15.346;2022-10-16T16:22:21;19.70;;;12.97;;
35897;SDS011;21997;47.118;15.346;2022-10-16T16:24:47;16.27;;;12.00;;
35897;SDS011;21997;47.118;15.346;2022-10-16T16:27:12;13.43;;;12.00;;
35897;SDS011;21997;47.118;15.346;2022-10-16T16:29:38;17.07;;;13.03;;
35897;SDS011;21997;47.118;15.346;2022-10-16T16:32:04;22.33;;;13.10;;